Time;durP1;ratioP1;P1;durP2;ratioP2;P2;SDS_P1;SDS_P2;PMS_P1;PMS_P2;Temp;Humidity;BMP_temperature;BMP_pressure;BME280_temperature;BME280_humidity;BME280_pressure;Samples;Min_cycle;Max_cycle;Signal;HPM_P1;HPM_P2
2022/10/11 00:01:41;;;;;;;1.20;1.20;;;;;;;;;;4934652;28;20229;-57
2022/10/11 00:04:07;;;;;;;1.50;1.50;;;;;;;;;;4947664;28;20585;-58
2022/10/11 00:06:33;;;;;;;1.20;1.20;;;;;;;;;;4949002;28;20218;-57
2022/10/11 00:08:59;;;;;;;1.30;1.30;;;;;;;;;;4941501;28;20829;-57
2022/10/11 00:11:25;;;;;;;1.27;1.27;;;;;;;;;;4952581;28;20234;-57
2022/10/11 00:13:50;;;;;;;1.13;1.13;;;;;;;;;;4952128;28;20230;-57
2022/10/11 00:16:16;;;;;;;1.00;1.00;;;;;;;;;;4956951;28;20252;-56
2022/10/11 00:18:42;;;;;;;1.00;1.00;;;;;;;;;;4928933;28;20228;-56
2022/10/11 00:21:10;;;;;;;0.80;0.80;;;;;;;;;;4932683;28;20261;-57
2022/10/11 00:23:36;;;;;;;1.00;1.00;;;;;;;;;;4928401;28;20235;-56
2022/10/11 00:26:03;;;;;;;1.10;1.10;;;;;;;;;;4899255;28;20716;-57
2022/10/11 00:28:29;;;;;;;1.00;1.00;;;;;;;;;;4933801;28;20711;-57
2022/10/11 00:30:55;;;;;;;0.90;0.90;;;;;;;;;;4928129;28;20965;-56
2022/10/11 00:33:21;;;;;;;1.40;1.40;;;;;;;;;;4925584;28;20228;-56
2022/10/11 00:35:47;;;;;;;1.40;1.40;;;;;;;;;;4939753;28;20694;-58
2022/10/11 00:38:13;;;;;;;1.40;1.40;;;;;;;;;;4937349;28;20275;-57
2022/10/11 00:40:39;;;;;;;1.40;1.40;;;;;;;;;;4938864;28;20698;-57
2022/10/11 00:43:11;;;;;;;1.27;1.27;;;;;;;;;;4934864;28;20342;-56
2022/10/11 00:45:37;;;;;;;0.90;0.90;;;;;;;;;;4914481;28;20221;-56
2022/10/11 00:48:04;;;;;;;1.00;1.00;;;;;;;;;;4920622;28;20239;-57
2022/10/11 00:50:31;;;;;;;1.20;1.20;;;;;;;;;;4922112;28;20927;-56
2022/10/11 00:52:57;;;;;;;1.20;1.20;;;;;;;;;;4912790;28;21716;-57
2022/10/11 00:55:23;;;;;;;1.10;1.10;;;;;;;;;;4927831;28;20588;-56
2022/10/11 00:57:49;;;;;;;1.23;1.23;;;;;;;;;;4929657;28;20699;-56
2022/10/11 01:00:15;;;;;;;1.20;1.20;;;;;;;;;;4901559;28;20224;-56
2022/10/11 01:02:41;;;;;;;1.20;1.20;;;;;;;;;;4922436;28;20732;-57
2022/10/11 01:05:08;;;;;;;1.10;1.10;;;;;;;;;;4940165;28;20220;-56
2022/10/11 01:07:34;;;;;;;0.70;0.70;;;;;;;;;;4931759;28;20318;-56
2022/10/11 01:10:00;;;;;;;0.80;0.80;;;;;;;;;;4932579;28;20307;-57
2022/10/11 01:12:26;;;;;;;0.83;0.83;;;;;;;;;;4928206;28;20232;-57
2022/10/11 01:15:01;;;;;;;0.80;0.80;;;;;;;;;;4933426;28;20239;-56
2022/10/11 01:17:43;;;;;;;0.80;0.80;;;;;;;;;;4948137;28;20246;-56
2022/10/11 01:20:16;;;;;;;0.93;0.93;;;;;;;;;;4938585;28;20225;-57
2022/10/11 01:23:00;;;;;;;0.70;0.70;;;;;;;;;;4941109;28;20234;-57
2022/10/11 01:25:28;;;;;;;0.70;0.70;;;;;;;;;;4949929;28;20256;-57
2022/10/11 01:28:13;;;;;;;0.90;0.90;;;;;;;;;;4938579;28;20510;-58
2022/10/11 01:30:39;;;;;;;0.97;0.97;;;;;;;;;;4943336;28;20232;-57
2022/10/11 01:33:05;;;;;;;0.90;0.90;;;;;;;;;;4933646;28;20592;-58
2022/10/11 01:35:47;;;;;;;0.80;0.80;;;;;;;;;;4948977;28;20233;-57
2022/10/11 01:38:16;;;;;;;0.90;0.90;;;;;;;;;;4939168;28;20230;-56
2022/10/11 01:40:46;;;;;;;0.80;0.80;;;;;;;;;;4957462;28;20234;-57
2022/10/11 01:43:13;;;;;;;0.70;0.70;;;;;;;;;;4955892;28;20213;-57
2022/10/11 01:45:40;;;;;;;0.90;0.90;;;;;;;;;;4932955;28;20252;-57
2022/10/11 01:48:07;;;;;;;0.70;0.70;;;;;;;;;;4945620;28;20245;-56
2022/10/11 01:50:44;;;;;;;0.90;0.90;;;;;;;;;;4940701;28;20255;-58
2022/10/11 01:53:16;;;;;;;0.80;0.80;;;;;;;;;;4945444;28;20224;-57
2022/10/11 01:55:46;;;;;;;0.80;0.80;;;;;;;;;;4954892;28;20353;-56
2022/10/11 01:58:15;;;;;;;0.80;0.80;;;;;;;;;;4937085;28;20669;-58
2022/10/11 02:01:00;;;;;;;0.83;0.83;;;;;;;;;;4940859;28;20226;-56
2022/10/11 02:03:33;;;;;;;0.97;0.97;;;;;;;;;;4955577;28;20226;-57
2022/10/11 02:06:10;;;;;;;0.80;0.80;;;;;;;;;;4933259;28;20223;-57
2022/10/11 02:08:45;;;;;;;1.00;1.00;;;;;;;;;;4932908;28;20270;-58
2022/10/11 02:11:16;;;;;;;1.20;1.20;;;;;;;;;;4938514;28;20574;-57
2022/10/11 02:13:44;;;;;;;1.10;1.10;;;;;;;;;;4938054;28;20231;-56
2022/10/11 02:16:11;;;;;;;0.90;0.90;;;;;;;;;;4953879;28;20237;-57
2022/10/11 02:18:38;;;;;;;1.00;1.00;;;;;;;;;;4965560;28;21405;-56
2022/10/11 02:21:05;;;;;;;0.90;0.90;;;;;;;;;;4940664;28;20231;-55
2022/10/11 02:23:37;;;;;;;0.90;0.90;;;;;;;;;;4953492;28;20231;-56
2022/10/11 02:26:05;;;;;;;1.00;1.00;;;;;;;;;;4938295;28;20238;-57
2022/10/11 02:28:31;;;;;;;1.03;1.03;;;;;;;;;;4933157;28;20229;-57
2022/10/11 02:30:57;;;;;;;0.90;0.90;;;;;;;;;;4953596;28;20230;-56
2022/10/11 02:33:25;;;;;;;1.10;1.10;;;;;;;;;;4945540;28;20222;-56
2022/10/11 02:35:54;;;;;;;0.90;0.90;;;;;;;;;;4944809;28;21900;-57
2022/10/11 02:38:20;;;;;;;0.90;0.90;;;;;;;;;;4942682;28;20235;-57
2022/10/11 02:40:47;;;;;;;0.97;0.97;;;;;;;;;;4954061;28;20226;-56
2022/10/11 02:43:24;;;;;;;1.00;1.00;;;;;;;;;;4944397;28;20220;-57
2022/10/11 02:45:51;;;;;;;0.90;0.90;;;;;;;;;;4915166;28;20262;-56
2022/10/11 02:48:17;;;;;;;0.80;0.80;;;;;;;;;;4907050;28;21702;-58
2022/10/11 02:50:43;;;;;;;1.00;1.00;;;;;;;;;;4906213;28;20242;-58
2022/10/11 02:53:09;;;;;;;1.00;1.00;;;;;;;;;;4898770;28;20286;-57
2022/10/11 02:55:35;;;;;;;0.93;0.93;;;;;;;;;;4960846;28;20321;-57
2022/10/11 02:58:01;;;;;;;1.10;1.10;;;;;;;;;;4953946;28;20249;-57
2022/10/11 03:00:27;;;;;;;1.60;1.60;;;;;;;;;;4956560;28;20238;-57
2022/10/11 03:02:53;;;;;;;1.67;1.63;;;;;;;;;;4957007;28;20250;-56
2022/10/11 03:05:19;;;;;;;1.30;1.30;;;;;;;;;;4944945;28;20397;-55
2022/10/11 03:07:45;;;;;;;1.60;1.60;;;;;;;;;;4959544;28;20234;-56
2022/10/11 03:10:11;;;;;;;1.60;1.60;;;;;;;;;;4957204;28;20229;-56
2022/10/11 03:12:37;;;;;;;1.50;1.50;;;;;;;;;;4964064;28;20293;-55
2022/10/11 03:15:03;;;;;;;1.40;1.40;;;;;;;;;;4966838;28;20252;-56
2022/10/11 03:17:29;;;;;;;1.67;1.67;;;;;;;;;;4964404;28;20222;-57
2022/10/11 03:19:55;;;;;;;1.40;1.40;;;;;;;;;;4931354;28;20849;-58
2022/10/11 03:22:21;;;;;;;1.50;1.50;;;;;;;;;;4960535;28;20779;-56
2022/10/11 03:24:47;;;;;;;1.40;1.40;;;;;;;;;;4967236;28;20238;-57
2022/10/11 03:27:13;;;;;;;1.70;1.70;;;;;;;;;;4951406;28;20760;-57
2022/10/11 03:29:38;;;;;;;1.97;1.87;;;;;;;;;;4952295;28;20724;-57
2022/10/11 03:32:04;;;;;;;1.50;1.50;;;;;;;;;;4944574;28;20261;-56
2022/10/11 03:34:30;;;;;;;1.50;1.50;;;;;;;;;;4965970;28;20237;-56
2022/10/11 03:36:56;;;;;;;1.50;1.50;;;;;;;;;;4920976;28;20695;-56
2022/10/11 03:39:22;;;;;;;1.30;1.30;;;;;;;;;;4948280;28;20231;-56
2022/10/11 03:41:48;;;;;;;1.00;1.00;;;;;;;;;;4952625;28;20231;-56
2022/10/11 03:44:14;;;;;;;0.80;0.80;;;;;;;;;;4957438;28;20534;-57
2022/10/11 03:46:40;;;;;;;0.80;0.80;;;;;;;;;;4950032;28;20226;-56
2022/10/11 03:49:06;;;;;;;1.00;1.00;;;;;;;;;;4952208;28;20223;-57
2022/10/11 03:51:32;;;;;;;1.00;1.00;;;;;;;;;;4957663;28;20227;-57
2022/10/11 03:53:58;;;;;;;1.00;1.00;;;;;;;;;;4951683;28;20218;-56
2022/10/11 03:56:24;;;;;;;0.80;0.80;;;;;;;;;;4948728;28;20251;-57
2022/10/11 03:58:50;;;;;;;1.10;1.10;;;;;;;;;;4961434;28;20223;-56
2022/10/11 04:01:16;;;;;;;1.50;1.50;;;;;;;;;;4945896;28;20221;-56
2022/10/11 04:03:42;;;;;;;1.30;1.30;;;;;;;;;;4950646;28;20241;-57
2022/10/11 04:06:08;;;;;;;1.40;1.40;;;;;;;;;;4947323;28;20687;-57
2022/10/11 04:08:34;;;;;;;1.80;1.70;;;;;;;;;;4945905;28;20654;-56
2022/10/11 04:10:59;;;;;;;1.20;1.20;;;;;;;;;;4958686;28;20766;-57
2022/10/11 04:13:25;;;;;;;1.10;1.10;;;;;;;;;;4960781;28;20222;-56
2022/10/11 04:15:51;;;;;;;1.10;1.10;;;;;;;;;;4954468;28;20934;-57
2022/10/11 04:18:18;;;;;;;0.90;0.90;;;;;;;;;;4947358;28;20737;-56
2022/10/11 04:20:44;;;;;;;1.00;1.00;;;;;;;;;;4950844;28;20321;-57
2022/10/11 04:23:09;;;;;;;1.00;1.00;;;;;;;;;;4959649;28;21446;-56
2022/10/11 04:25:37;;;;;;;1.30;1.30;;;;;;;;;;4941351;28;20223;-57
2022/10/11 04:28:03;;;;;;;2.03;1.93;;;;;;;;;;4951966;28;20309;-57
2022/10/11 04:30:29;;;;;;;1.50;1.50;;;;;;;;;;4947572;28;20219;-57
2022/10/11 04:32:55;;;;;;;1.40;1.40;;;;;;;;;;4957084;28;20240;-56
2022/10/11 04:35:21;;;;;;;1.57;1.57;;;;;;;;;;4943509;28;20662;-57
2022/10/11 04:37:47;;;;;;;1.30;1.30;;;;;;;;;;4942801;28;20248;-56
2022/10/11 04:40:13;;;;;;;1.60;1.60;;;;;;;;;;4940050;28;20221;-57
2022/10/11 04:42:39;;;;;;;1.70;1.70;;;;;;;;;;4952140;28;20725;-57
2022/10/11 04:45:05;;;;;;;1.90;1.80;;;;;;;;;;4952310;28;20768;-57
2022/10/11 04:47:31;;;;;;;2.07;1.97;;;;;;;;;;4960208;28;20264;-56
2022/10/11 04:49:57;;;;;;;1.70;1.70;;;;;;;;;;4942625;28;20691;-56
2022/10/11 04:52:23;;;;;;;1.60;1.60;;;;;;;;;;4951078;28;20230;-57
2022/10/11 04:54:49;;;;;;;1.40;1.40;;;;;;;;;;4953648;28;20227;-56
2022/10/11 04:57:15;;;;;;;1.30;1.30;;;;;;;;;;4937446;28;20332;-56
2022/10/11 04:59:41;;;;;;;1.40;1.40;;;;;;;;;;4918401;28;20307;-56
2022/10/11 05:02:07;;;;;;;1.60;1.60;;;;;;;;;;4907074;28;20259;-57
2022/10/11 05:04:33;;;;;;;1.60;1.60;;;;;;;;;;4943154;28;20804;-57
2022/10/11 05:06:59;;;;;;;1.67;1.67;;;;;;;;;;4954791;28;20747;-57
2022/10/11 05:09:25;;;;;;;1.50;1.50;;;;;;;;;;4926731;28;20683;-57
2022/10/11 05:11:51;;;;;;;1.80;1.70;;;;;;;;;;4937818;28;20750;-56
2022/10/11 05:14:17;;;;;;;1.60;1.60;;;;;;;;;;4937447;28;20233;-58
2022/10/11 05:16:43;;;;;;;1.83;1.73;;;;;;;;;;4942692;28;20267;-58
2022/10/11 05:19:09;;;;;;;1.67;1.67;;;;;;;;;;4921080;28;20231;-57
2022/10/11 05:21:35;;;;;;;1.87;1.77;;;;;;;;;;4922603;28;20311;-56
2022/10/11 05:24:01;;;;;;;1.80;1.70;;;;;;;;;;4907593;28;20245;-56
2022/10/11 05:26:27;;;;;;;1.73;1.70;;;;;;;;;;4929605;28;20862;-57
2022/10/11 05:28:53;;;;;;;1.90;1.80;;;;;;;;;;4923851;28;20243;-57
2022/10/11 05:31:19;;;;;;;1.60;1.60;;;;;;;;;;4905422;28;20283;-57
2022/10/11 05:33:45;;;;;;;1.50;1.50;;;;;;;;;;4916052;28;20233;-56
2022/10/11 05:36:11;;;;;;;1.40;1.40;;;;;;;;;;4911989;28;20936;-56
2022/10/11 05:38:37;;;;;;;1.10;1.10;;;;;;;;;;4934369;28;20230;-56
2022/10/11 05:41:03;;;;;;;1.40;1.40;;;;;;;;;;4931175;28;20305;-56
2022/10/11 05:43:29;;;;;;;1.70;1.70;;;;;;;;;;4944915;28;20313;-56
2022/10/11 05:45:55;;;;;;;1.90;1.80;;;;;;;;;;4938966;28;20223;-56
2022/10/11 05:48:22;;;;;;;2.07;1.97;;;;;;;;;;4933101;28;20226;-57
2022/10/11 05:50:48;;;;;;;1.90;1.80;;;;;;;;;;4931120;28;20234;-57
2022/10/11 05:53:14;;;;;;;1.93;1.83;;;;;;;;;;4943548;28;20308;-57
2022/10/11 05:55:41;;;;;;;1.70;1.70;;;;;;;;;;4944921;28;20242;-56
2022/10/11 05:58:07;;;;;;;1.90;1.80;;;;;;;;;;4936390;28;20279;-57
2022/10/11 06:00:35;;;;;;;2.00;1.90;;;;;;;;;;4935884;28;20771;-55
2022/10/11 06:03:01;;;;;;;2.07;1.97;;;;;;;;;;4925924;28;20247;-56
2022/10/11 06:05:27;;;;;;;1.80;1.70;;;;;;;;;;4943790;28;20353;-56
2022/10/11 06:07:53;;;;;;;1.50;1.50;;;;;;;;;;4920643;28;20604;-56
2022/10/11 06:10:19;;;;;;;1.93;1.83;;;;;;;;;;4946829;28;20254;-57
2022/10/11 06:12:45;;;;;;;1.63;1.63;;;;;;;;;;4938437;28;20246;-56
2022/10/11 06:15:11;;;;;;;1.60;1.60;;;;;;;;;;4934231;28;20243;-57
2022/10/11 06:17:37;;;;;;;1.37;1.37;;;;;;;;;;4961178;28;20249;-57
2022/10/11 06:20:03;;;;;;;1.20;1.20;;;;;;;;;;4965164;28;20223;-56
2022/10/11 06:22:29;;;;;;;1.40;1.40;;;;;;;;;;4953979;28;20321;-56
2022/10/11 06:24:55;;;;;;;1.40;1.40;;;;;;;;;;4959008;28;20237;-56
2022/10/11 06:27:21;;;;;;;1.30;1.30;;;;;;;;;;4958395;28;20254;-56
2022/10/11 06:29:47;;;;;;;1.50;1.50;;;;;;;;;;4951144;28;20305;-57
2022/10/11 06:32:13;;;;;;;1.53;1.53;;;;;;;;;;4961459;28;20319;-56
2022/10/11 06:34:39;;;;;;;1.50;1.50;;;;;;;;;;4964476;28;20314;-57
2022/10/11 06:37:05;;;;;;;1.40;1.40;;;;;;;;;;4957227;28;20365;-57
2022/10/11 06:39:31;;;;;;;1.40;1.40;;;;;;;;;;4959468;28;20214;-56
2022/10/11 06:41:57;;;;;;;1.50;1.50;;;;;;;;;;4963397;28;20246;-57
2022/10/11 06:44:23;;;;;;;1.60;1.60;;;;;;;;;;4965600;28;20238;-56
2022/10/11 06:46:49;;;;;;;1.30;1.30;;;;;;;;;;4961317;28;20301;-56
2022/10/11 06:49:15;;;;;;;1.50;1.50;;;;;;;;;;4966933;28;20649;-57
2022/10/11 06:51:41;;;;;;;1.40;1.40;;;;;;;;;;4950587;28;20734;-56
2022/10/11 06:54:07;;;;;;;1.30;1.30;;;;;;;;;;4961232;28;20223;-56
2022/10/11 06:56:33;;;;;;;1.40;1.40;;;;;;;;;;4961317;28;20652;-56
2022/10/11 06:58:59;;;;;;;1.43;1.43;;;;;;;;;;4954242;28;20247;-56
2022/10/11 07:01:25;;;;;;;1.60;1.60;;;;;;;;;;4966079;28;20624;-57
2022/10/11 07:03:51;;;;;;;1.20;1.20;;;;;;;;;;4960617;28;20234;-56
2022/10/11 07:06:18;;;;;;;1.40;1.40;;;;;;;;;;4963304;28;20238;-56
2022/10/11 07:08:44;;;;;;;1.33;1.33;;;;;;;;;;4953554;28;20277;-57
2022/10/11 07:11:17;;;;;;;1.60;1.60;;;;;;;;;;4954484;28;20226;-58
2022/10/11 07:13:43;;;;;;;1.47;1.47;;;;;;;;;;4960203;28;20792;-58
2022/10/11 07:16:10;;;;;;;1.40;1.40;;;;;;;;;;4958677;28;20247;-56
2022/10/11 07:18:36;;;;;;;1.23;1.23;;;;;;;;;;4960895;28;20595;-56
2022/10/11 07:21:02;;;;;;;1.10;1.10;;;;;;;;;;4962378;28;20687;-57
2022/10/11 07:23:28;;;;;;;1.37;1.37;;;;;;;;;;4961102;28;20225;-57
2022/10/11 07:25:54;;;;;;;1.20;1.20;;;;;;;;;;4973252;28;20705;-56
2022/10/11 07:28:20;;;;;;;1.20;1.20;;;;;;;;;;4966473;28;20226;-57
2022/10/11 07:30:46;;;;;;;1.30;1.30;;;;;;;;;;4958252;28;20237;-56
2022/10/11 07:33:12;;;;;;;1.20;1.20;;;;;;;;;;4965793;28;20239;-56
2022/10/11 07:35:38;;;;;;;1.20;1.20;;;;;;;;;;4965931;28;20239;-56
2022/10/11 07:38:04;;;;;;;1.20;1.20;;;;;;;;;;4952900;28;20233;-57
2022/10/11 07:40:30;;;;;;;1.20;1.20;;;;;;;;;;4950838;28;20227;-56
2022/10/11 07:42:57;;;;;;;1.20;1.20;;;;;;;;;;4964029;28;20234;-56
2022/10/11 07:45:23;;;;;;;1.30;1.30;;;;;;;;;;4949271;28;20731;-56
2022/10/11 07:47:49;;;;;;;1.30;1.30;;;;;;;;;;4950155;28;20233;-55
2022/10/11 07:50:15;;;;;;;1.00;1.00;;;;;;;;;;4959664;28;20232;-57
2022/10/11 07:52:41;;;;;;;1.10;1.10;;;;;;;;;;4960057;28;20254;-57
2022/10/11 07:55:07;;;;;;;1.00;1.00;;;;;;;;;;4949643;28;20237;-57
2022/10/11 07:57:33;;;;;;;1.20;1.20;;;;;;;;;;4945245;28;20224;-58
2022/10/11 07:59:59;;;;;;;1.30;1.30;;;;;;;;;;4940943;28;20243;-57
2022/10/11 08:02:25;;;;;;;1.20;1.20;;;;;;;;;;4942802;28;20227;-56
2022/10/11 08:04:51;;;;;;;1.40;1.40;;;;;;;;;;4937692;28;20310;-57
2022/10/11 08:07:17;;;;;;;1.23;1.23;;;;;;;;;;4954128;28;20218;-57
2022/10/11 08:09:43;;;;;;;1.30;1.30;;;;;;;;;;4949043;28;20236;-58
2022/10/11 08:12:09;;;;;;;1.20;1.20;;;;;;;;;;4927736;28;20343;-57
2022/10/11 08:14:35;;;;;;;1.10;1.10;;;;;;;;;;4944636;28;20651;-57
2022/10/11 08:17:01;;;;;;;1.10;1.10;;;;;;;;;;4944258;28;20250;-57
2022/10/11 08:19:27;;;;;;;1.23;1.23;;;;;;;;;;4948916;28;20234;-57
2022/10/11 08:21:53;;;;;;;0.90;0.90;;;;;;;;;;4945198;28;20238;-57
2022/10/11 08:24:19;;;;;;;0.90;0.90;;;;;;;;;;4953569;28;20730;-57
2022/10/11 08:26:45;;;;;;;0.90;0.90;;;;;;;;;;4949869;28;20840;-56
2022/10/11 08:29:13;;;;;;;0.87;0.87;;;;;;;;;;4951109;28;20299;-56
2022/10/11 08:31:38;;;;;;;0.70;0.70;;;;;;;;;;4934962;28;20222;-58
2022/10/11 08:34:05;;;;;;;0.70;0.70;;;;;;;;;;4940076;28;20238;-57
2022/10/11 08:36:31;;;;;;;0.77;0.77;;;;;;;;;;4950988;28;20227;-57
2022/10/11 08:38:57;;;;;;;0.80;0.80;;;;;;;;;;4945083;28;20305;-57
2022/10/11 08:41:23;;;;;;;0.73;0.73;;;;;;;;;;4954381;28;20717;-57
2022/10/11 08:43:57;;;;;;;0.73;0.73;;;;;;;;;;4951105;28;20782;-57
2022/10/11 08:46:24;;;;;;;0.80;0.80;;;;;;;;;;4945984;28;20225;-57
2022/10/11 08:48:50;;;;;;;0.80;0.80;;;;;;;;;;4950461;28;20231;-57
2022/10/11 08:51:20;;;;;;;0.70;0.70;;;;;;;;;;4941070;28;20223;-57
2022/10/11 08:53:49;;;;;;;0.80;0.80;;;;;;;;;;4949918;28;20723;-56
2022/10/11 08:56:15;;;;;;;0.90;0.90;;;;;;;;;;4954320;28;20234;-57
2022/10/11 08:58:50;;;;;;;0.90;0.90;;;;;;;;;;4953374;28;20228;-57
2022/10/11 09:01:17;;;;;;;0.90;0.90;;;;;;;;;;4947438;28;20237;-57
2022/10/11 09:03:44;;;;;;;1.00;1.00;;;;;;;;;;4935936;28;20238;-57
2022/10/11 09:06:20;;;;;;;1.20;1.20;;;;;;;;;;4942909;28;20246;-56
2022/10/11 09:08:55;;;;;;;1.30;1.30;;;;;;;;;;4931332;28;20241;-57
2022/10/11 09:11:39;;;;;;;1.50;1.50;;;;;;;;;;4953694;28;20711;-56
2022/10/11 09:14:17;;;;;;;1.17;1.17;;;;;;;;;;4950276;28;20703;-57
2022/10/11 09:16:49;;;;;;;1.20;1.20;;;;;;;;;;4951431;28;20257;-58
2022/10/11 09:19:33;;;;;;;1.00;1.00;;;;;;;;;;4954054;28;20229;-56
2022/10/11 09:22:08;;;;;;;1.10;1.10;;;;;;;;;;4924740;28;20744;-58
2022/10/11 09:24:34;;;;;;;1.00;1.00;;;;;;;;;;4945902;28;20229;-56
2022/10/11 09:27:19;;;;;;;1.00;1.00;;;;;;;;;;4934590;28;20763;-57
2022/10/11 09:29:45;;;;;;;0.90;0.90;;;;;;;;;;4944446;28;20233;-57
2022/10/11 09:32:15;;;;;;;0.90;0.90;;;;;;;;;;4912559;28;20272;-58
2022/10/11 09:34:41;;;;;;;1.00;1.00;;;;;;;;;;4948428;28;20745;-57
2022/10/11 09:37:11;;;;;;;0.90;0.90;;;;;;;;;;4943592;28;20875;-58
2022/10/11 09:39:38;;;;;;;0.80;0.80;;;;;;;;;;4938257;28;20234;-57
2022/10/11 09:42:06;;;;;;;0.90;0.90;;;;;;;;;;4913872;28;20699;-57
2022/10/11 09:44:33;;;;;;;0.90;0.90;;;;;;;;;;4946974;28;20222;-57
2022/10/11 09:46:59;;;;;;;0.80;0.80;;;;;;;;;;4934848;28;20624;-59
2022/10/11 09:49:33;;;;;;;1.00;1.00;;;;;;;;;;4938740;28;20254;-57
2022/10/11 09:52:00;;;;;;;1.00;1.00;;;;;;;;;;4953213;28;20241;-57
2022/10/11 09:54:42;;;;;;;1.07;1.07;;;;;;;;;;4944684;28;20234;-57
2022/10/11 09:57:17;;;;;;;1.00;1.00;;;;;;;;;;4925904;28;20314;-58
2022/10/11 09:59:43;;;;;;;1.00;1.00;;;;;;;;;;4933390;28;20290;-57
2022/10/11 10:02:12;;;;;;;1.20;1.20;;;;;;;;;;4943892;28;20234;-57
2022/10/11 10:04:54;;;;;;;1.20;1.20;;;;;;;;;;4925420;28;20771;-58
2022/10/11 10:07:20;;;;;;;1.20;1.20;;;;;;;;;;4918386;28;20638;-57
2022/10/11 10:09:46;;;;;;;1.10;1.10;;;;;;;;;;4906549;28;20621;-58
2022/10/11 10:12:13;;;;;;;1.20;1.20;;;;;;;;;;4944588;28;20229;-57
2022/10/11 10:14:39;;;;;;;1.20;1.20;;;;;;;;;;4920830;28;20235;-57
2022/10/11 10:17:05;;;;;;;1.10;1.10;;;;;;;;;;4946480;28;20261;-58
2022/10/11 10:19:54;;;;;;;1.10;1.10;;;;;;;;;;4950963;28;20425;-57
2022/10/11 10:22:26;;;;;;;1.30;1.30;;;;;;;;;;4934112;28;20348;-57
2022/10/11 10:24:52;;;;;;;1.20;1.20;;;;;;;;;;4924285;28;20965;-55
2022/10/11 10:27:27;;;;;;;1.40;1.40;;;;;;;;;;4912908;28;20215;-58
2022/10/11 10:30:00;;;;;;;1.20;1.20;;;;;;;;;;4923340;28;20225;-58
2022/10/11 10:32:46;;;;;;;1.40;1.40;;;;;;;;;;4940063;28;20584;-59
2022/10/11 10:35:22;;;;;;;1.30;1.30;;;;;;;;;;4916201;28;20319;-58
2022/10/11 10:37:51;;;;;;;1.60;1.60;;;;;;;;;;4937363;28;20218;-58
2022/10/11 10:40:18;;;;;;;1.40;1.40;;;;;;;;;;4944641;28;20233;-59
2022/10/11 10:42:44;;;;;;;1.50;1.50;;;;;;;;;;4942320;28;20227;-58
2022/10/11 10:45:14;;;;;;;1.60;1.60;;;;;;;;;;4924601;28;20239;-58
2022/10/11 10:47:42;;;;;;;1.00;1.00;;;;;;;;;;4925506;28;20222;-58
2022/10/11 10:50:14;;;;;;;1.20;1.20;;;;;;;;;;4920868;28;21291;-58
2022/10/11 10:52:56;;;;;;;1.20;1.20;;;;;;;;;;4916713;28;20237;-59
2022/10/11 10:55:22;;;;;;;1.23;1.23;;;;;;;;;;4932412;28;20600;-59
2022/10/11 10:58:08;;;;;;;1.00;1.00;;;;;;;;;;4940879;28;20623;-59
2022/10/11 11:00:45;;;;;;;1.00;1.00;;;;;;;;;;4919516;28;20221;-60
2022/10/11 11:03:30;;;;;;;0.80;0.80;;;;;;;;;;4919484;28;20229;-60
2022/10/11 11:06:00;;;;;;;0.90;0.90;;;;;;;;;;4942944;28;20230;-59
2022/10/11 11:08:45;;;;;;;1.00;1.00;;;;;;;;;;4937443;28;20381;-59
2022/10/11 11:11:34;;;;;;;0.77;0.77;;;;;;;;;;4937157;28;20229;-59
2022/10/11 11:14:22;;;;;;;0.90;0.90;;;;;;;;;;4897382;28;20242;-59
2022/10/11 11:17:07;;;;;;;1.00;1.00;;;;;;;;;;4923755;28;20243;-59
2022/10/11 11:19:59;;;;;;;1.10;1.10;;;;;;;;;;4914272;28;20609;-59
2022/10/11 11:22:37;;;;;;;1.00;1.00;;;;;;;;;;4876520;28;20253;-60
2022/10/11 11:25:08;;;;;;;0.80;0.80;;;;;;;;;;4926241;28;20243;-59
2022/10/11 11:27:56;;;;;;;1.08;1.08;;;;;;;;;;4941372;28;20648;-60
2022/10/11 11:30:23;;;;;;;1.10;1.10;;;;;;;;;;4933320;28;22409;-59
2022/10/11 11:32:52;;;;;;;1.20;1.20;;;;;;;;;;4912856;28;20609;-60
2022/10/11 11:35:26;;;;;;;0.90;0.90;;;;;;;;;;4922535;28;20231;-60
2022/10/11 11:37:53;;;;;;;0.80;0.80;;;;;;;;;;4918291;28;21685;-60
2022/10/11 11:40:39;;;;;;;1.00;1.00;;;;;;;;;;4951533;28;20723;-61
2022/10/11 11:43:12;;;;;;;1.00;1.00;;;;;;;;;;4936856;28;20691;-60
2022/10/11 11:45:46;;;;;;;1.00;1.00;;;;;;;;;;4935583;28;20213;-60
2022/10/11 11:48:17;;;;;;;0.70;0.70;;;;;;;;;;4913954;28;20224;-60
2022/10/11 11:50:43;;;;;;;0.70;0.70;;;;;;;;;;4943375;28;20254;-60
2022/10/11 11:53:13;;;;;;;1.00;1.00;;;;;;;;;;4962077;28;20218;-60
2022/10/11 11:55:51;;;;;;;0.63;0.63;;;;;;;;;;4930659;28;20730;-60
2022/10/11 11:58:36;;;;;;;0.70;0.70;;;;;;;;;;4905607;28;20263;-60
2022/10/11 12:01:02;;;;;;;0.70;0.70;;;;;;;;;;4916989;28;23133;-60
2022/10/11 12:03:30;;;;;;;0.70;0.70;;;;;;;;;;4927518;28;20215;-60
2022/10/11 12:06:14;;;;;;;0.63;0.63;;;;;;;;;;4939077;28;20889;-58
2022/10/11 12:08:41;;;;;;;0.70;0.70;;;;;;;;;;4933378;28;20751;-59
2022/10/11 12:11:18;;;;;;;0.70;0.70;;;;;;;;;;4929552;28;20291;-58
2022/10/11 12:13:45;;;;;;;0.65;0.65;;;;;;;;;;4953900;28;20760;-59
2022/10/11 12:16:11;;;;;;;0.70;0.70;;;;;;;;;;4924755;28;21540;-59
2022/10/11 12:18:58;;;;;;;0.70;0.70;;;;;;;;;;4924910;28;20368;-60
2022/10/11 12:21:27;;;;;;;0.80;0.80;;;;;;;;;;4948314;28;20227;-60
2022/10/11 12:23:53;;;;;;;0.65;0.65;;;;;;;;;;4935939;28;20372;-59
2022/10/11 12:26:28;;;;;;;0.60;0.60;;;;;;;;;;4916148;28;20280;-60
2022/10/11 12:29:02;;;;;;;0.75;0.75;;;;;;;;;;4910989;28;20258;-59
2022/10/11 12:31:32;;;;;;;0.70;0.70;;;;;;;;;;4924040;28;20220;-60
2022/10/11 12:34:01;;;;;;;0.70;0.70;;;;;;;;;;4927397;28;21907;-60
2022/10/11 12:36:28;;;;;;;0.70;0.70;;;;;;;;;;4910919;28;20825;-59
2022/10/11 12:39:12;;;;;;;0.70;0.70;;;;;;;;;;4947758;28;20757;-59
2022/10/11 12:41:52;;;;;;;0.80;0.80;;;;;;;;;;4946164;28;20810;-59
2022/10/11 12:44:18;;;;;;;0.80;0.80;;;;;;;;;;4947316;28;20294;-59
2022/10/11 12:46:47;;;;;;;0.80;0.80;;;;;;;;;;4944625;28;20584;-59
2022/10/11 12:49:23;;;;;;;0.85;0.85;;;;;;;;;;4961151;28;20233;-59
2022/10/11 12:51:49;;;;;;;0.80;0.80;;;;;;;;;;4948531;28;20242;-59
2022/10/11 12:54:20;;;;;;;0.90;0.90;;;;;;;;;;4946881;28;20230;-59
2022/10/11 12:57:04;;;;;;;0.80;0.80;;;;;;;;;;4954236;28;20308;-59
2022/10/11 12:59:30;;;;;;;0.90;0.90;;;;;;;;;;4947741;28;20223;-59
2022/10/11 13:01:57;;;;;;;0.90;0.90;;;;;;;;;;4949094;28;20931;-58
2022/10/11 13:04:31;;;;;;;0.90;0.90;;;;;;;;;;4955597;28;20257;-59
2022/10/11 13:07:03;;;;;;;1.00;1.00;;;;;;;;;;4962123;28;20278;-59
2022/10/11 13:09:33;;;;;;;0.90;0.90;;;;;;;;;;4936200;28;20258;-58
2022/10/11 13:12:01;;;;;;;1.15;1.15;;;;;;;;;;4939862;28;20230;-60
2022/10/11 13:14:27;;;;;;;1.05;1.05;;;;;;;;;;4937176;28;20607;-58
2022/10/11 13:17:00;;;;;;;1.00;1.00;;;;;;;;;;4954367;28;20245;-59
2022/10/11 13:19:26;;;;;;;1.00;1.00;;;;;;;;;;4951663;28;20230;-59
2022/10/11 13:21:56;;;;;;;0.90;0.90;;;;;;;;;;4947668;28;20692;-58
2022/10/11 13:24:22;;;;;;;1.00;1.00;;;;;;;;;;4940132;28;20245;-59
2022/10/11 13:26:48;;;;;;;1.00;1.00;;;;;;;;;;4952218;28;20767;-57
2022/10/11 13:29:15;;;;;;;1.00;1.00;;;;;;;;;;4949259;28;20598;-58
2022/10/11 13:31:41;;;;;;;0.90;0.90;;;;;;;;;;4952102;28;20223;-59
2022/10/11 13:34:09;;;;;;;1.10;1.10;;;;;;;;;;4948829;28;20230;-59
2022/10/11 13:36:34;;;;;;;1.00;1.00;;;;;;;;;;4934369;28;22196;-58
2022/10/11 13:39:01;;;;;;;1.00;1.00;;;;;;;;;;4952782;28;20230;-59
2022/10/11 13:41:28;;;;;;;1.00;1.00;;;;;;;;;;4944411;28;20225;-58
2022/10/11 13:43:54;;;;;;;0.90;0.90;;;;;;;;;;4947616;28;20280;-57
2022/10/11 13:46:21;;;;;;;1.00;1.00;;;;;;;;;;4934833;28;20235;-57
2022/10/11 13:48:56;;;;;;;0.93;0.93;;;;;;;;;;4952401;28;20231;-58
2022/10/11 13:51:35;;;;;;;1.00;1.00;;;;;;;;;;4951083;28;20230;-58
2022/10/11 13:54:01;;;;;;;0.90;0.90;;;;;;;;;;4929763;28;20222;-57
2022/10/11 13:56:28;;;;;;;0.90;0.90;;;;;;;;;;4946624;28;20252;-58
2022/10/11 13:58:54;;;;;;;1.10;1.10;;;;;;;;;;4949832;28;20218;-57
2022/10/11 14:01:21;;;;;;;1.10;1.10;;;;;;;;;;4957400;28;20229;-58
2022/10/11 14:03:48;;;;;;;1.00;1.00;;;;;;;;;;4948221;28;20314;-58
2022/10/11 14:06:14;;;;;;;1.00;1.00;;;;;;;;;;4951103;28;20223;-58
2022/10/11 14:08:50;;;;;;;1.20;1.20;;;;;;;;;;4931190;28;20227;-57
2022/10/11 14:11:20;;;;;;;1.20;1.20;;;;;;;;;;4938679;28;20718;-60
2022/10/11 14:13:48;;;;;;;1.10;1.10;;;;;;;;;;4924994;28;20218;-60
2022/10/11 14:16:20;;;;;;;1.00;1.00;;;;;;;;;;4929066;28;20326;-60
2022/10/11 14:18:47;;;;;;;0.90;0.90;;;;;;;;;;4931338;28;20224;-60
2022/10/11 14:21:19;;;;;;;0.90;0.90;;;;;;;;;;4915641;28;20229;-60
2022/10/11 14:23:52;;;;;;;0.90;0.90;;;;;;;;;;4931128;28;20227;-61
2022/10/11 14:26:18;;;;;;;0.90;0.90;;;;;;;;;;4934173;28;20585;-60
2022/10/11 14:28:44;;;;;;;1.10;1.10;;;;;;;;;;4939030;28;20227;-60
2022/10/11 14:31:10;;;;;;;1.00;1.00;;;;;;;;;;4933669;28;20234;-60
2022/10/11 14:33:36;;;;;;;1.10;1.10;;;;;;;;;;4937124;28;20786;-59
2022/10/11 14:36:02;;;;;;;1.00;1.00;;;;;;;;;;4931823;28;20233;-60
2022/10/11 14:38:28;;;;;;;1.00;1.00;;;;;;;;;;4933574;28;20589;-60
2022/10/11 14:40:54;;;;;;;0.90;0.90;;;;;;;;;;4933960;28;20888;-60
2022/10/11 14:43:20;;;;;;;0.90;0.90;;;;;;;;;;4939111;28;20224;-59
2022/10/11 14:45:46;;;;;;;0.90;0.90;;;;;;;;;;4929638;28;20845;-61
2022/10/11 14:48:12;;;;;;;1.00;1.00;;;;;;;;;;4917069;28;20900;-59
2022/10/11 14:50:48;;;;;;;1.00;1.00;;;;;;;;;;4937226;28;20224;-59
2022/10/11 14:53:15;;;;;;;1.10;1.10;;;;;;;;;;4913201;28;20262;-59